sensor_id;sensor_type;location;lat;lon;timestamp;temperature;humidity
8892;DHT22;4482;54.332;10.118;2023-11-21T00:00:33;8.60;99.90
8892;DHT22;4482;54.332;10.118;2023-11-21T00:03:00;8.60;99.90
8892;DHT22;4482;54.332;10.118;2023-11-21T00:05:27;8.50;99.90
8892;DHT22;4482;54.332;10.118;2023-11-21T00:07:54;8.50;99.90
8892;DHT22;4482;54.332;10.118;2023-11-21T00:10:20;8.40;99.90
8892;DHT22;4482;54.332;10.118;2023-11-21T00:12:47;8.40;99.90
8892;DHT22;4482;54.332;10.118;2023-11-21T00:15:15;8.40;99.90
8892;DHT22;4482;54.332;10.118;2023-11-21T00:17:42;8.30;99.90
8892;DHT22;4482;54.332;10.118;2023-11-21T00:20:09;8.30;99.90
8892;DHT22;4482;54.332;10.118;2023-11-21T00:22:38;8.40;99.90
8892;DHT22;4482;54.332;10.118;2023-11-21T00:25:06;8.40;99.90
8892;DHT22;4482;54.332;10.118;2023-11-21T00:27:34;8.40;99.90
8892;DHT22;4482;54.332;10.118;2023-11-21T00:30:01;8.40;99.90
8892;DHT22;4482;54.332;10.118;2023-11-21T00:32:31;8.40;99.90
8892;DHT22;4482;54.332;10.118;2023-11-21T00:34:57;8.30;99.90
8892;DHT22;4482;54.332;10.118;2023-11-21T00:37:24;8.30;99.90
8892;DHT22;4482;54.332;10.118;2023-11-21T00:39:51;8.40;99.90
8892;DHT22;4482;54.332;10.118;2023-11-21T00:42:18;8.40;99.90
8892;DHT22;4482;54.332;10.118;2023-11-21T00:44:44;8.40;99.90
8892;DHT22;4482;54.332;10.118;2023-11-21T00:47:11;8.30;99.90
8892;DHT22;4482;54.332;10.118;2023-11-21T00:49:39;8.30;99.90
8892;DHT22;4482;54.332;10.118;2023-11-21T00:52:06;8.30;99.90
8892;DHT22;4482;54.332;10.118;2023-11-21T00:54:35;8.30;99.90
8892;DHT22;4482;54.332;10.118;2023-11-21T00:57:02;8.30;99.90
8892;DHT22;4482;54.332;10.118;2023-11-21T00:59:29;8.20;99.90
8892;DHT22;4482;54.332;10.118;2023-11-21T01:01:55;8.20;99.90
8892;DHT22;4482;54.332;10.118;2023-11-21T01:04:25;8.20;99.90
8892;DHT22;4482;54.332;10.118;2023-11-21T01:06:53;8.20;99.90
8892;DHT22;4482;54.332;10.118;2023-11-21T01:09:20;8.10;99.90
8892;DHT22;4482;54.332;10.118;2023-11-21T01:11:46;8.10;99.90
8892;DHT22;4482;54.332;10.118;2023-11-21T01:14:13;8.10;99.90
8892;DHT22;4482;54.332;10.118;2023-11-21T01:16:40;8.10;99.90
8892;DHT22;4482;54.332;10.118;2023-11-21T01:19:06;8.10;99.90
8892;DHT22;4482;54.332;10.118;2023-11-21T01:21:34;8.10;99.90
8892;DHT22;4482;54.332;10.118;2023-11-21T01:24:02;8.00;99.90
8892;DHT22;4482;54.332;10.118;2023-11-21T01:26:30;8.00;99.90
8892;DHT22;4482;54.332;10.118;2023-11-21T01:28:57;8.00;99.90
8892;DHT22;4482;54.332;10.118;2023-11-21T01:31:24;7.90;99.90
8892;DHT22;4482;54.332;10.118;2023-11-21T01:33:54;7.90;99.90
8892;DHT22;4482;54.332;10.118;2023-11-21T01:36:21;7.90;99.90
8892;DHT22;4482;54.332;10.118;2023-11-21T01:38:48;7.80;99.90
8892;DHT22;4482;54.332;10.118;2023-11-21T01:41:16;7.80;99.90
8892;DHT22;4482;54.332;10.118;2023-11-21T01:43:42;7.80;99.90
8892;DHT22;4482;54.332;10.118;2023-11-21T01:46:09;7.80;99.90
8892;DHT22;4482;54.332;10.118;2023-11-21T01:48:36;7.80;99.90
8892;DHT22;4482;54.332;10.118;2023-11-21T01:51:03;7.80;99.90
8892;DHT22;4482;54.332;10.118;2023-11-21T01:53:30;7.90;99.90
8892;DHT22;4482;54.332;10.118;2023-11-21T01:55:57;7.90;99.90
8892;DHT22;4482;54.332;10.118;2023-11-21T01:58:26;7.90;99.90
8892;DHT22;4482;54.332;10.118;2023-11-21T02:00:53;7.90;99.90
8892;DHT22;4482;54.332;10.118;2023-11-21T02:03:20;7.90;99.90
8892;DHT22;4482;54.332;10.118;2023-11-21T02:05:47;7.90;99.90
8892;DHT22;4482;54.332;10.118;2023-11-21T02:08:13;7.90;99.90
8892;DHT22;4482;54.332;10.118;2023-11-21T02:10:40;7.90;99.90
8892;DHT22;4482;54.332;10.118;2023-11-21T02:13:07;7.90;99.90
8892;DHT22;4482;54.332;10.118;2023-11-21T02:15:34;7.90;99.90
8892;DHT22;4482;54.332;10.118;2023-11-21T02:18:01;7.80;99.90
8892;DHT22;4482;54.332;10.118;2023-11-21T02:20:28;7.80;99.90
8892;DHT22;4482;54.332;10.118;2023-11-21T02:22:57;7.80;99.90
8892;DHT22;4482;54.332;10.118;2023-11-21T02:25:24;7.80;99.90
8892;DHT22;4482;54.332;10.118;2023-11-21T02:27:51;7.80;99.90
8892;DHT22;4482;54.332;10.118;2023-11-21T02:30:20;7.80;99.90
8892;DHT22;4482;54.332;10.118;2023-11-21T02:32:47;7.70;99.90
8892;DHT22;4482;54.332;10.118;2023-11-21T02:35:13;7.70;99.90
8892;DHT22;4482;54.332;10.118;2023-11-21T02:37:41;7.80;99.90
8892;DHT22;4482;54.332;10.118;2023-11-21T02:40:10;7.80;99.90
8892;DHT22;4482;54.332;10.118;2023-11-21T02:42:37;7.80;99.90
8892;DHT22;4482;54.332;10.118;2023-11-21T02:45:05;7.70;99.90
8892;DHT22;4482;54.332;10.118;2023-11-21T02:47:32;7.80;99.90
8892;DHT22;4482;54.332;10.118;2023-11-21T02:49:58;7.80;99.90
8892;DHT22;4482;54.332;10.118;2023-11-21T02:52:25;7.90;99.90
8892;DHT22;4482;54.332;10.118;2023-11-21T02:54:52;8.00;99.90
8892;DHT22;4482;54.332;10.118;2023-11-21T02:57:20;8.00;99.90
8892;DHT22;4482;54.332;10.118;2023-11-21T02:59:47;7.90;99.90
8892;DHT22;4482;54.332;10.118;2023-11-21T03:02:14;7.80;99.90
8892;DHT22;4482;54.332;10.118;2023-11-21T03:04:41;7.80;99.90
8892;DHT22;4482;54.332;10.118;2023-11-21T03:07:07;7.70;99.90
8892;DHT22;4482;54.332;10.118;2023-11-21T03:09:34;7.70;99.90
8892;DHT22;4482;54.332;10.118;2023-11-21T03:12:01;7.70;99.90
8892;DHT22;4482;54.332;10.118;2023-11-21T03:14:29;7.80;99.90
8892;DHT22;4482;54.332;10.118;2023-11-21T03:16:55;7.80;99.90
8892;DHT22;4482;54.332;10.118;2023-11-21T03:19:22;7.80;99.90
8892;DHT22;4482;54.332;10.118;2023-11-21T03:21:49;7.80;99.90
8892;DHT22;4482;54.332;10.118;2023-11-21T03:24:18;7.90;99.90
8892;DHT22;4482;54.332;10.118;2023-11-21T03:26:45;7.90;99.90
8892;DHT22;4482;54.332;10.118;2023-11-21T03:29:11;7.90;99.90
8892;DHT22;4482;54.332;10.118;2023-11-21T03:31:40;7.90;99.90
8892;DHT22;4482;54.332;10.118;2023-11-21T03:34:09;8.00;99.90
8892;DHT22;4482;54.332;10.118;2023-11-21T03:36:36;8.00;99.90
8892;DHT22;4482;54.332;10.118;2023-11-21T03:39:03;8.00;99.90
8892;DHT22;4482;54.332;10.118;2023-11-21T03:41:30;8.00;99.90
8892;DHT22;4482;54.332;10.118;2023-11-21T03:43:57;8.00;99.90
8892;DHT22;4482;54.332;10.118;2023-11-21T03:46:24;8.00;99.90
8892;DHT22;4482;54.332;10.118;2023-11-21T03:48:52;8.10;99.90
8892;DHT22;4482;54.332;10.118;2023-11-21T03:51:21;8.10;99.90
8892;DHT22;4482;54.332;10.118;2023-11-21T03:53:47;8.10;99.90
8892;DHT22;4482;54.332;10.118;2023-11-21T03:56:14;8.00;99.90
8892;DHT22;4482;54.332;10.118;2023-11-21T03:58:40;8.10;99.90
8892;DHT22;4482;54.332;10.118;2023-11-21T04:01:08;8.10;99.90
8892;DHT22;4482;54.332;10.118;2023-11-21T04:03:35;8.10;99.90
8892;DHT22;4482;54.332;10.118;2023-11-21T04:06:03;8.10;99.90
8892;DHT22;4482;54.332;10.118;2023-11-21T04:08:31;8.10;99.90
8892;DHT22;4482;54.332;10.118;2023-11-21T04:10:59;8.10;99.90
8892;DHT22;4482;54.332;10.118;2023-11-21T04:13:26;8.10;99.90
8892;DHT22;4482;54.332;10.118;2023-11-21T04:15:53;8.10;99.90
8892;DHT22;4482;54.332;10.118;2023-11-21T04:18:19;8.10;99.90
8892;DHT22;4482;54.332;10.118;2023-11-21T04:20:46;8.20;99.90
8892;DHT22;4482;54.332;10.118;2023-11-21T04:23:16;8.20;99.90
8892;DHT22;4482;54.332;10.118;2023-11-21T04:25:42;8.20;99.90
8892;DHT22;4482;54.332;10.118;2023-11-21T04:28:09;8.20;99.90
8892;DHT22;4482;54.332;10.118;2023-11-21T04:30:35;8.20;99.90
8892;DHT22;4482;54.332;10.118;2023-11-21T04:33:04;8.20;99.90
8892;DHT22;4482;54.332;10.118;2023-11-21T04:35:31;8.20;99.90
8892;DHT22;4482;54.332;10.118;2023-11-21T04:37:58;8.10;99.90
8892;DHT22;4482;54.332;10.118;2023-11-21T04:40:26;8.10;99.90
8892;DHT22;4482;54.332;10.118;2023-11-21T04:42:53;8.10;99.90
8892;DHT22;4482;54.332;10.118;2023-11-21T04:45:20;8.10;99.90
8892;DHT22;4482;54.332;10.118;2023-11-21T04:47:46;8.10;99.90
8892;DHT22;4482;54.332;10.118;2023-11-21T04:50:13;8.10;99.90
8892;DHT22;4482;54.332;10.118;2023-11-21T04:52:39;8.10;99.90
8892;DHT22;4482;54.332;10.118;2023-11-21T04:55:06;8.10;99.90
8892;DHT22;4482;54.332;10.118;2023-11-21T04:57:36;8.00;99.90
8892;DHT22;4482;54.332;10.118;2023-11-21T05:00:03;8.00;99.90
8892;DHT22;4482;54.332;10.118;2023-11-21T05:02:31;8.10;99.90
8892;DHT22;4482;54.332;10.118;2023-11-21T05:04:59;8.00;99.90
8892;DHT22;4482;54.332;10.118;2023-11-21T05:07:26;8.00;99.90
8892;DHT22;4482;54.332;10.118;2023-11-21T05:09:54;8.00;99.90
8892;DHT22;4482;54.332;10.118;2023-11-21T05:12:21;8.00;99.90
8892;DHT22;4482;54.332;10.118;2023-11-21T05:14:49;8.00;99.90
8892;DHT22;4482;54.332;10.118;2023-11-21T05:17:16;7.90;99.90
8892;DHT22;4482;54.332;10.118;2023-11-21T05:19:42;7.90;99.90
8892;DHT22;4482;54.332;10.118;2023-11-21T05:22:10;7.90;99.90
8892;DHT22;4482;54.332;10.118;2023-11-21T05:24:37;7.80;99.90
8892;DHT22;4482;54.332;10.118;2023-11-21T05:27:04;7.80;99.90
8892;DHT22;4482;54.332;10.118;2023-11-21T05:29:31;7.80;99.90
8892;DHT22;4482;54.332;10.118;2023-11-21T05:31:59;7.80;99.90
8892;DHT22;4482;54.332;10.118;2023-11-21T05:34:25;7.80;99.90
8892;DHT22;4482;54.332;10.118;2023-11-21T05:36:52;7.80;99.90
8892;DHT22;4482;54.332;10.118;2023-11-21T05:39:19;7.90;99.90
8892;DHT22;4482;54.332;10.118;2023-11-21T05:41:44;7.80;99.90
8892;DHT22;4482;54.332;10.118;2023-11-21T05:44:11;7.90;99.90
8892;DHT22;4482;54.332;10.118;2023-11-21T05:46:39;7.80;99.90
8892;DHT22;4482;54.332;10.118;2023-11-21T05:49:09;7.80;99.90
8892;DHT22;4482;54.332;10.118;2023-11-21T05:51:36;7.80;99.90
8892;DHT22;4482;54.332;10.118;2023-11-21T05:54:03;7.80;99.90
8892;DHT22;4482;54.332;10.118;2023-11-21T05:56:30;7.90;99.90
8892;DHT22;4482;54.332;10.118;2023-11-21T05:58:57;7.80;99.90
8892;DHT22;4482;54.332;10.118;2023-11-21T06:01:23;7.80;99.90
8892;DHT22;4482;54.332;10.118;2023-11-21T06:03:50;7.80;99.90
8892;DHT22;4482;54.332;10.118;2023-11-21T06:06:18;7.80;99.90
8892;DHT22;4482;54.332;10.118;2023-11-21T06:08:45;7.80;99.90
8892;DHT22;4482;54.332;10.118;2023-11-21T06:11:11;7.80;99.90
8892;DHT22;4482;54.332;10.118;2023-11-21T06:13:39;7.80;99.90
8892;DHT22;4482;54.332;10.118;2023-11-21T06:16:06;7.80;99.90
8892;DHT22;4482;54.332;10.118;2023-11-21T06:18:32;7.80;99.90
8892;DHT22;4482;54.332;10.118;2023-11-21T06:21:00;7.80;99.90
8892;DHT22;4482;54.332;10.118;2023-11-21T06:23:28;7.80;99.90
8892;DHT22;4482;54.332;10.118;2023-11-21T06:25:54;7.70;99.90
8892;DHT22;4482;54.332;10.118;2023-11-21T06:28:22;7.70;99.90
8892;DHT22;4482;54.332;10.118;2023-11-21T06:30:49;7.70;99.90
8892;DHT22;4482;54.332;10.118;2023-11-21T06:33:16;7.60;99.90
8892;DHT22;4482;54.332;10.118;2023-11-21T06:35:42;7.60;99.90
8892;DHT22;4482;54.332;10.118;2023-11-21T06:38:10;7.60;99.90
8892;DHT22;4482;54.332;10.118;2023-11-21T06:40:37;7.60;99.90
8892;DHT22;4482;54.332;10.118;2023-11-21T06:43:04;7.60;99.90
8892;DHT22;4482;54.332;10.118;2023-11-21T06:45:32;7.50;99.90
8892;DHT22;4482;54.332;10.118;2023-11-21T06:47:59;7.50;99.90
8892;DHT22;4482;54.332;10.118;2023-11-21T06:50:26;7.60;99.90
8892;DHT22;4482;54.332;10.118;2023-11-21T06:52:52;7.60;99.90
8892;DHT22;4482;54.332;10.118;2023-11-21T06:55:19;7.60;99.90
8892;DHT22;4482;54.332;10.118;2023-11-21T06:57:47;7.60;99.90
8892;DHT22;4482;54.332;10.118;2023-11-21T07:00:15;7.70;99.90
8892;DHT22;4482;54.332;10.118;2023-11-21T07:02:42;7.70;99.90
8892;DHT22;4482;54.332;10.118;2023-11-21T07:05:10;7.60;99.90
8892;DHT22;4482;54.332;10.118;2023-11-21T07:07:36;7.70;99.90
8892;DHT22;4482;54.332;10.118;2023-11-21T07:10:04;7.60;99.90
8892;DHT22;4482;54.332;10.118;2023-11-21T07:12:31;7.60;99.90
8892;DHT22;4482;54.332;10.118;2023-11-21T07:14:59;7.60;99.90
8892;DHT22;4482;54.332;10.118;2023-11-21T07:17:25;7.60;99.90
8892;DHT22;4482;54.332;10.118;2023-11-21T07:19:52;7.60;99.90
8892;DHT22;4482;54.332;10.118;2023-11-21T07:22:18;7.60;99.90
8892;DHT22;4482;54.332;10.118;2023-11-21T07:24:48;7.70;99.90
8892;DHT22;4482;54.332;10.118;2023-11-21T07:27:14;7.70;99.90
8892;DHT22;4482;54.332;10.118;2023-11-21T07:29:41;7.70;99.90
8892;DHT22;4482;54.332;10.118;2023-11-21T07:32:09;7.70;99.90
8892;DHT22;4482;54.332;10.118;2023-11-21T07:34:36;7.70;99.90
8892;DHT22;4482;54.332;10.118;2023-11-21T07:37:02;7.70;99.90
8892;DHT22;4482;54.332;10.118;2023-11-21T07:39:29;7.60;99.90
8892;DHT22;4482;54.332;10.118;2023-11-21T07:41:56;7.70;99.90
8892;DHT22;4482;54.332;10.118;2023-11-21T07:44:23;7.60;99.90
8892;DHT22;4482;54.332;10.118;2023-11-21T07:46:49;7.60;99.90
8892;DHT22;4482;54.332;10.118;2023-11-21T07:49:17;7.60;99.90
8892;DHT22;4482;54.332;10.118;2023-11-21T07:51:46;7.50;99.90
8892;DHT22;4482;54.332;10.118;2023-11-21T07:54:13;7.60;99.90
8892;DHT22;4482;54.332;10.118;2023-11-21T07:56:39;7.60;99.90
8892;DHT22;4482;54.332;10.118;2023-11-21T07:59:06;7.60;99.90
8892;DHT22;4482;54.332;10.118;2023-11-21T08:01:33;7.70;99.90
8892;DHT22;4482;54.332;10.118;2023-11-21T08:03:59;7.70;99.90
8892;DHT22;4482;54.332;10.118;2023-11-21T08:06:30;7.70;99.90
8892;DHT22;4482;54.332;10.118;2023-11-21T08:08:57;7.70;99.90
8892;DHT22;4482;54.332;10.118;2023-11-21T08:11:24;7.70;99.90
8892;DHT22;4482;54.332;10.118;2023-11-21T08:13:51;7.80;99.90
8892;DHT22;4482;54.332;10.118;2023-11-21T08:16:18;7.80;99.90
8892;DHT22;4482;54.332;10.118;2023-11-21T08:18:45;7.80;99.90
8892;DHT22;4482;54.332;10.118;2023-11-21T08:21:12;7.70;99.90
8892;DHT22;4482;54.332;10.118;2023-11-21T08:23:40;7.70;99.90
8892;DHT22;4482;54.332;10.118;2023-11-21T08:26:07;7.70;99.90
8892;DHT22;4482;54.332;10.118;2023-11-21T08:28:34;7.80;99.90
8892;DHT22;4482;54.332;10.118;2023-11-21T08:31:00;7.90;99.90
8892;DHT22;4482;54.332;10.118;2023-11-21T08:33:27;7.90;99.90
8892;DHT22;4482;54.332;10.118;2023-11-21T08:35:54;7.90;99.90
8892;DHT22;4482;54.332;10.118;2023-11-21T08:38:20;7.80;99.90
8892;DHT22;4482;54.332;10.118;2023-11-21T08:40:49;7.80;99.90
8892;DHT22;4482;54.332;10.118;2023-11-21T08:43:15;7.80;99.90
8892;DHT22;4482;54.332;10.118;2023-11-21T08:45:45;7.80;99.90
8892;DHT22;4482;54.332;10.118;2023-11-21T08:48:12;7.90;99.90
8892;DHT22;4482;54.332;10.118;2023-11-21T08:50:38;7.90;99.90
8892;DHT22;4482;54.332;10.118;2023-11-21T08:53:05;7.90;99.90
8892;DHT22;4482;54.332;10.118;2023-11-21T08:55:32;8.00;99.90
8892;DHT22;4482;54.332;10.118;2023-11-21T08:58:04;8.00;99.90
8892;DHT22;4482;54.332;10.118;2023-11-21T09:00:32;8.00;99.90
8892;DHT22;4482;54.332;10.118;2023-11-21T09:02:58;8.00;99.90
8892;DHT22;4482;54.332;10.118;2023-11-21T09:05:25;8.00;99.90
8892;DHT22;4482;54.332;10.118;2023-11-21T09:07:52;8.00;99.90
8892;DHT22;4482;54.332;10.118;2023-11-21T09:10:18;8.00;99.90
8892;DHT22;4482;54.332;10.118;2023-11-21T09:12:46;7.90;99.90
8892;DHT22;4482;54.332;10.118;2023-11-21T09:15:14;7.90;99.90
8892;DHT22;4482;54.332;10.118;2023-11-21T09:17:40;7.90;99.90
8892;DHT22;4482;54.332;10.118;2023-11-21T09:20:08;8.00;99.90
8892;DHT22;4482;54.332;10.118;2023-11-21T09:22:35;8.00;99.90
8892;DHT22;4482;54.332;10.118;2023-11-21T09:25:02;8.00;99.90
8892;DHT22;4482;54.332;10.118;2023-11-21T09:27:30;8.00;99.90
8892;DHT22;4482;54.332;10.118;2023-11-21T09:29:57;8.00;99.90
8892;DHT22;4482;54.332;10.118;2023-11-21T09:32:25;8.00;99.90
8892;DHT22;4482;54.332;10.118;2023-11-21T09:34:51;8.10;99.90
8892;DHT22;4482;54.332;10.118;2023-11-21T09:37:20;8.10;99.90
8892;DHT22;4482;54.332;10.118;2023-11-21T09:39:47;8.10;99.90
8892;DHT22;4482;54.332;10.118;2023-11-21T09:42:15;8.20;99.90
8892;DHT22;4482;54.332;10.118;2023-11-21T09:44:45;8.20;99.90
8892;DHT22;4482;54.332;10.118;2023-11-21T09:47:14;8.20;99.90
8892;DHT22;4482;54.332;10.118;2023-11-21T09:49:43;8.20;99.90
8892;DHT22;4482;54.332;10.118;2023-11-21T09:52:14;8.20;99.90
8892;DHT22;4482;54.332;10.118;2023-11-21T09:54:44;8.20;99.90
8892;DHT22;4482;54.332;10.118;2023-11-21T09:57:13;8.20;99.90
8892;DHT22;4482;54.332;10.118;2023-11-21T09:59:41;8.10;99.90
8892;DHT22;4482;54.332;10.118;2023-11-21T10:02:08;8.20;99.90
8892;DHT22;4482;54.332;10.118;2023-11-21T10:04:38;8.20;99.90
8892;DHT22;4482;54.332;10.118;2023-11-21T10:07:06;8.20;99.90
8892;DHT22;4482;54.332;10.118;2023-11-21T10:09:34;8.20;99.90
8892;DHT22;4482;54.332;10.118;2023-11-21T10:12:02;8.20;99.90
8892;DHT22;4482;54.332;10.118;2023-11-21T10:14:31;8.10;99.90
8892;DHT22;4482;54.332;10.118;2023-11-21T10:16:59;8.10;99.90
8892;DHT22;4482;54.332;10.118;2023-11-21T10:19:25;8.00;99.90
8892;DHT22;4482;54.332;10.118;2023-11-21T10:21:52;8.00;99.90
8892;DHT22;4482;54.332;10.118;2023-11-21T10:24:21;8.00;99.90
8892;DHT22;4482;54.332;10.118;2023-11-21T10:26:47;7.90;99.90
8892;DHT22;4482;54.332;10.118;2023-11-21T10:29:18;7.80;99.90
8892;DHT22;4482;54.332;10.118;2023-11-21T10:31:48;7.80;99.90
8892;DHT22;4482;54.332;10.118;2023-11-21T10:34:15;7.80;99.90
8892;DHT22;4482;54.332;10.118;2023-11-21T10:36:42;7.80;99.90
8892;DHT22;4482;54.332;10.118;2023-11-21T10:39:09;7.90;99.90
8892;DHT22;4482;54.332;10.118;2023-11-21T10:41:37;7.90;99.90
8892;DHT22;4482;54.332;10.118;2023-11-21T10:44:05;7.90;99.90
8892;DHT22;4482;54.332;10.118;2023-11-21T10:46:32;7.90;99.90
8892;DHT22;4482;54.332;10.118;2023-11-21T10:48:59;7.70;99.90
8892;DHT22;4482;54.332;10.118;2023-11-21T10:51:27;7.60;99.90
8892;DHT22;4482;54.332;10.118;2023-11-21T10:53:54;7.40;99.90
8892;DHT22;4482;54.332;10.118;2023-11-21T10:56:23;7.40;99.90
8892;DHT22;4482;54.332;10.118;2023-11-21T10:58:51;7.40;99.90
8892;DHT22;4482;54.332;10.118;2023-11-21T11:01:19;7.30;99.90
8892;DHT22;4482;54.332;10.118;2023-11-21T11:03:47;7.10;99.90
8892;DHT22;4482;54.332;10.118;2023-11-21T11:06:14;7.00;99.90
8892;DHT22;4482;54.332;10.118;2023-11-21T11:08:41;6.80;99.90
8892;DHT22;4482;54.332;10.118;2023-11-21T11:11:09;6.80;99.90
8892;DHT22;4482;54.332;10.118;2023-11-21T11:13:37;6.90;99.90
8892;DHT22;4482;54.332;10.118;2023-11-21T11:16:05;6.90;99.90
8892;DHT22;4482;54.332;10.118;2023-11-21T11:18:35;6.90;99.90
8892;DHT22;4482;54.332;10.118;2023-11-21T11:21:07;6.90;99.90
8892;DHT22;4482;54.332;10.118;2023-11-21T11:23:42;7.00;99.90
8892;DHT22;4482;54.332;10.118;2023-11-21T11:26:12;6.90;99.90
8892;DHT22;4482;54.332;10.118;2023-11-21T11:28:47;7.00;99.90
8892;DHT22;4482;54.332;10.118;2023-11-21T11:31:18;7.10;99.90
8892;DHT22;4482;54.332;10.118;2023-11-21T11:33:55;7.10;99.90
8892;DHT22;4482;54.332;10.118;2023-11-21T11:36:26;7.20;99.90
8892;DHT22;4482;54.332;10.118;2023-11-21T11:38:54;7.40;99.90
8892;DHT22;4482;54.332;10.118;2023-11-21T11:41:24;7.40;99.90
8892;DHT22;4482;54.332;10.118;2023-11-21T11:43:52;7.40;99.90
8892;DHT22;4482;54.332;10.118;2023-11-21T11:46:20;7.40;99.90
8892;DHT22;4482;54.332;10.118;2023-11-21T11:48:48;7.40;99.90
8892;DHT22;4482;54.332;10.118;2023-11-21T11:51:15;7.40;99.90
8892;DHT22;4482;54.332;10.118;2023-11-21T11:53:43;7.30;99.90
8892;DHT22;4482;54.332;10.118;2023-11-21T11:56:21;7.40;99.90
8892;DHT22;4482;54.332;10.118;2023-11-21T11:58:49;7.40;99.90
8892;DHT22;4482;54.332;10.118;2023-11-21T12:01:16;7.40;99.90
8892;DHT22;4482;54.332;10.118;2023-11-21T12:03:45;7.40;99.90
8892;DHT22;4482;54.332;10.118;2023-11-21T12:06:33;7.40;99.90
8892;DHT22;4482;54.332;10.118;2023-11-21T12:09:00;7.50;99.90
8892;DHT22;4482;54.332;10.118;2023-11-21T12:11:30;7.60;99.90
8892;DHT22;4482;54.332;10.118;2023-11-21T12:13:56;7.60;99.90
8892;DHT22;4482;54.332;10.118;2023-11-21T12:16:24;7.70;99.90
8892;DHT22;4482;54.332;10.118;2023-11-21T12:18:54;7.60;99.90
8892;DHT22;4482;54.332;10.118;2023-11-21T12:21:20;7.50;99.90
8892;DHT22;4482;54.332;10.118;2023-11-21T12:23:48;7.50;99.90
8892;DHT22;4482;54.332;10.118;2023-11-21T12:26:15;7.50;99.90
8892;DHT22;4482;54.332;10.118;2023-11-21T12:28:41;7.50;99.90
8892;DHT22;4482;54.332;10.118;2023-11-21T12:31:08;7.50;99.90
8892;DHT22;4482;54.332;10.118;2023-11-21T12:33:36;7.50;99.90
8892;DHT22;4482;54.332;10.118;2023-11-21T12:36:05;7.50;99.90
8892;DHT22;4482;54.332;10.118;2023-11-21T12:38:35;7.40;99.90
8892;DHT22;4482;54.332;10.118;2023-11-21T12:41:02;7.40;99.90
8892;DHT22;4482;54.332;10.118;2023-11-21T12:43:29;7.30;99.90
8892;DHT22;4482;54.332;10.118;2023-11-21T12:46:04;7.30;99.90
8892;DHT22;4482;54.332;10.118;2023-11-21T12:48:31;7.30;99.90
8892;DHT22;4482;54.332;10.118;2023-11-21T12:50:58;7.30;99.90
8892;DHT22;4482;54.332;10.118;2023-11-21T12:53:27;7.30;99.90
8892;DHT22;4482;54.332;10.118;2023-11-21T12:56:02;7.30;99.90
8892;DHT22;4482;54.332;10.118;2023-11-21T12:58:29;7.40;99.90
8892;DHT22;4482;54.332;10.118;2023-11-21T13:00:55;7.50;99.90
8892;DHT22;4482;54.332;10.118;2023-11-21T13:03:24;7.40;99.90
8892;DHT22;4482;54.332;10.118;2023-11-21T13:05:52;7.40;99.90
8892;DHT22;4482;54.332;10.118;2023-11-21T13:08:20;7.40;99.90
8892;DHT22;4482;54.332;10.118;2023-11-21T13:10:49;7.40;99.90
8892;DHT22;4482;54.332;10.118;2023-11-21T13:13:17;7.40;99.90
8892;DHT22;4482;54.332;10.118;2023-11-21T13:15:47;7.40;99.90
8892;DHT22;4482;54.332;10.118;2023-11-21T13:18:14;7.30;99.90
8892;DHT22;4482;54.332;10.118;2023-11-21T13:20:41;7.30;99.90
8892;DHT22;4482;54.332;10.118;2023-11-21T13:23:08;7.20;99.90
8892;DHT22;4482;54.332;10.118;2023-11-21T13:25:37;7.30;99.90
8892;DHT22;4482;54.332;10.118;2023-11-21T13:28:07;7.30;99.90
8892;DHT22;4482;54.332;10.118;2023-11-21T13:30:35;7.30;99.90
8892;DHT22;4482;54.332;10.118;2023-11-21T13:33:02;7.20;99.90
8892;DHT22;4482;54.332;10.118;2023-11-21T13:35:32;7.20;99.90
8892;DHT22;4482;54.332;10.118;2023-11-21T13:38:03;7.30;99.90
8892;DHT22;4482;54.332;10.118;2023-11-21T13:40:31;7.40;99.90
8892;DHT22;4482;54.332;10.118;2023-11-21T13:43:05;7.30;99.90
8892;DHT22;4482;54.332;10.118;2023-11-21T13:45:36;7.40;99.90
8892;DHT22;4482;54.332;10.118;2023-11-21T13:48:04;7.30;99.90
8892;DHT22;4482;54.332;10.118;2023-11-21T13:50:35;7.40;99.90
8892;DHT22;4482;54.332;10.118;2023-11-21T13:53:02;7.30;99.90
8892;DHT22;4482;54.332;10.118;2023-11-21T13:55:36;7.30;99.90
8892;DHT22;4482;54.332;10.118;2023-11-21T13:58:03;7.20;99.90
8892;DHT22;4482;54.332;10.118;2023-11-21T14:00:34;7.20;99.90
8892;DHT22;4482;54.332;10.118;2023-11-21T14:03:19;7.10;99.90
8892;DHT22;4482;54.332;10.118;2023-11-21T14:05:47;7.00;99.90
8892;DHT22;4482;54.332;10.118;2023-11-21T14:08:17;7.00;99.90
8892;DHT22;4482;54.332;10.118;2023-11-21T14:10:45;7.00;99.90
8892;DHT22;4482;54.332;10.118;2023-11-21T14:13:16;7.00;99.90
8892;DHT22;4482;54.332;10.118;2023-11-21T14:15:43;7.00;99.90
8892;DHT22;4482;54.332;10.118;2023-11-21T14:18:11;7.00;99.90
8892;DHT22;4482;54.332;10.118;2023-11-21T14:20:43;7.00;99.90
8892;DHT22;4482;54.332;10.118;2023-11-21T14:23:10;6.90;99.90
8892;DHT22;4482;54.332;10.118;2023-11-21T14:25:37;6.90;99.90
8892;DHT22;4482;54.332;10.118;2023-11-21T14:28:05;6.90;99.90
8892;DHT22;4482;54.332;10.118;2023-11-21T14:30:31;6.90;99.90
8892;DHT22;4482;54.332;10.118;2023-11-21T14:33:00;6.90;99.90
8892;DHT22;4482;54.332;10.118;2023-11-21T14:35:27;6.90;99.90
8892;DHT22;4482;54.332;10.118;2023-11-21T14:37:57;6.90;99.90
8892;DHT22;4482;54.332;10.118;2023-11-21T14:40:24;6.90;99.90
8892;DHT22;4482;54.332;10.118;2023-11-21T14:42:52;6.90;99.90
8892;DHT22;4482;54.332;10.118;2023-11-21T14:45:22;6.80;99.90
8892;DHT22;4482;54.332;10.118;2023-11-21T14:47:51;6.80;99.90
8892;DHT22;4482;54.332;10.118;2023-11-21T14:50:28;6.80;99.90
8892;DHT22;4482;54.332;10.118;2023-11-21T14:53:18;6.70;99.90
8892;DHT22;4482;54.332;10.118;2023-11-21T14:56:06;6.70;99.90
8892;DHT22;4482;54.332;10.118;2023-11-21T14:58:33;6.70;99.90
8892;DHT22;4482;54.332;10.118;2023-11-21T15:01:01;6.70;99.90
8892;DHT22;4482;54.332;10.118;2023-11-21T15:03:28;6.70;99.90
8892;DHT22;4482;54.332;10.118;2023-11-21T15:06:09;6.60;99.90
8892;DHT22;4482;54.332;10.118;2023-11-21T15:08:57;6.60;99.90
8892;DHT22;4482;54.332;10.118;2023-11-21T15:11:38;6.60;99.90
8892;DHT22;4482;54.332;10.118;2023-11-21T15:14:04;6.60;99.90
8892;DHT22;4482;54.332;10.118;2023-11-21T15:16:33;6.50;99.90
8892;DHT22;4482;54.332;10.118;2023-11-21T15:19:04;6.50;99.90
8892;DHT22;4482;54.332;10.118;2023-11-21T15:21:31;6.40;99.90
8892;DHT22;4482;54.332;10.118;2023-11-21T15:23:59;6.40;99.90
8892;DHT22;4482;54.332;10.118;2023-11-21T15:26:26;6.40;99.90
8892;DHT22;4482;54.332;10.118;2023-11-21T15:28:53;6.40;99.90
8892;DHT22;4482;54.332;10.118;2023-11-21T15:31:20;6.30;99.90
8892;DHT22;4482;54.332;10.118;2023-11-21T15:33:50;6.30;99.90
8892;DHT22;4482;54.332;10.118;2023-11-21T15:36:17;6.30;99.90
8892;DHT22;4482;54.332;10.118;2023-11-21T15:38:44;6.20;99.90
8892;DHT22;4482;54.332;10.118;2023-11-21T15:41:12;6.20;99.90
8892;DHT22;4482;54.332;10.118;2023-11-21T15:43:39;6.20;99.90
8892;DHT22;4482;54.332;10.118;2023-11-21T15:46:06;6.20;99.90
8892;DHT22;4482;54.332;10.118;2023-11-21T15:48:33;6.10;99.90
8892;DHT22;4482;54.332;10.118;2023-11-21T15:51:00;6.20;99.90
8892;DHT22;4482;54.332;10.118;2023-11-21T15:53:27;6.10;99.90
8892;DHT22;4482;54.332;10.118;2023-11-21T15:55:54;6.10;99.90
8892;DHT22;4482;54.332;10.118;2023-11-21T15:58:22;6.10;99.90
8892;DHT22;4482;54.332;10.118;2023-11-21T16:00:50;6.00;99.90
8892;DHT22;4482;54.332;10.118;2023-11-21T16:03:16;6.00;99.90
8892;DHT22;4482;54.332;10.118;2023-11-21T16:05:43;6.00;99.90